sensor_id;sensor_type;location;lat;lon;timestamp;P1;durP1;ratioP1;P2;durP2;ratioP2
24383;SDS011;12504;52.870;8.798;2022-12-29T00:02:10;10.05;;;6.93;;
24383;SDS011;12504;52.870;8.798;2022-12-29T00:04:36;8.65;;;5.60;;
24383;SDS011;12504;52.870;8.798;2022-12-29T00:07:02;8.70;;;5.72;;
24383;SDS011;12504;52.870;8.798;2022-12-29T00:09:29;11.35;;;5.90;;
24383;SDS011;12504;52.870;8.798;2022-12-29T00:11:56;9.10;;;5.72;;
24383;SDS011;12504;52.870;8.798;2022-12-29T00:14:23;8.73;;;6.38;;
24383;SDS011;12504;52.870;8.798;2022-12-29T00:17:07;8.68;;;5.97;;
24383;SDS011;12504;52.870;8.798;2022-12-29T00:19:33;9.95;;;6.78;;
24383;SDS011;12504;52.870;8.798;2022-12-29T00:22:17;8.85;;;6.22;;
24383;SDS011;12504;52.870;8.798;2022-12-29T00:25:02;9.48;;;6.90;;
24383;SDS011;12504;52.870;8.798;2022-12-29T00:27:48;10.13;;;6.70;;
24383;SDS011;12504;52.870;8.798;2022-12-29T00:30:33;9.40;;;7.05;;
24383;SDS011;12504;52.870;8.798;2022-12-29T00:33:20;9.48;;;6.15;;
24383;SDS011;12504;52.870;8.798;2022-12-29T00:36:25;13.57;;;7.05;;
24383;SDS011;12504;52.870;8.798;2022-12-29T00:39:06;8.65;;;5.88;;
24383;SDS011;12504;52.870;8.798;2022-12-29T00:42:02;9.60;;;7.10;;
24383;SDS011;12504;52.870;8.798;2022-12-29T00:45:04;8.43;;;6.35;;
24383;SDS011;12504;52.870;8.798;2022-12-29T00:47:30;8.13;;;5.28;;
24383;SDS011;12504;52.870;8.798;2022-12-29T00:49:56;10.55;;;6.78;;
24383;SDS011;12504;52.870;8.798;2022-12-29T00:52:21;8.38;;;6.57;;
24383;SDS011;12504;52.870;8.798;2022-12-29T00:54:47;9.52;;;6.72;;
24383;SDS011;12504;52.870;8.798;2022-12-29T00:57:13;8.35;;;6.18;;
24383;SDS011;12504;52.870;8.798;2022-12-29T00:59:39;9.05;;;5.70;;
24383;SDS011;12504;52.870;8.798;2022-12-29T01:02:06;9.25;;;6.03;;
24383;SDS011;12504;52.870;8.798;2022-12-29T01:04:32;7.38;;;5.50;;
24383;SDS011;12504;52.870;8.798;2022-12-29T01:06:58;9.55;;;6.60;;
24383;SDS011;12504;52.870;8.798;2022-12-29T01:09:23;9.00;;;6.45;;
24383;SDS011;12504;52.870;8.798;2022-12-29T01:12:08;8.35;;;6.28;;
24383;SDS011;12504;52.870;8.798;2022-12-29T01:14:35;6.95;;;5.78;;
24383;SDS011;12504;52.870;8.798;2022-12-29T01:17:02;9.15;;;6.15;;
24383;SDS011;12504;52.870;8.798;2022-12-29T01:19:28;9.23;;;6.10;;
24383;SDS011;12504;52.870;8.798;2022-12-29T01:21:55;8.55;;;6.25;;
24383;SDS011;12504;52.870;8.798;2022-12-29T01:24:20;7.85;;;5.22;;
24383;SDS011;12504;52.870;8.798;2022-12-29T01:26:46;10.02;;;6.75;;
24383;SDS011;12504;52.870;8.798;2022-12-29T01:29:12;7.40;;;6.15;;
24383;SDS011;12504;52.870;8.798;2022-12-29T01:31:38;8.40;;;6.07;;
24383;SDS011;12504;52.870;8.798;2022-12-29T01:34:04;10.90;;;6.50;;
24383;SDS011;12504;52.870;8.798;2022-12-29T01:36:31;8.82;;;5.70;;
24383;SDS011;12504;52.870;8.798;2022-12-29T01:38:57;7.53;;;5.13;;
24383;SDS011;12504;52.870;8.798;2022-12-29T01:41:23;9.80;;;5.88;;
24383;SDS011;12504;52.870;8.798;2022-12-29T01:43:49;7.07;;;5.75;;
24383;SDS011;12504;52.870;8.798;2022-12-29T01:49:11;8.27;;;5.47;;
24383;SDS011;12504;52.870;8.798;2022-12-29T01:51:41;10.98;;;6.25;;
24383;SDS011;12504;52.870;8.798;2022-12-29T01:54:25;8.40;;;5.65;;
24383;SDS011;12504;52.870;8.798;2022-12-29T01:56:59;7.00;;;5.70;;
24383;SDS011;12504;52.870;8.798;2022-12-29T02:01:59;7.07;;;5.63;;
24383;SDS011;12504;52.870;8.798;2022-12-29T02:04:26;11.63;;;5.80;;
24383;SDS011;12504;52.870;8.798;2022-12-29T02:06:59;6.80;;;6.10;;
24383;SDS011;12504;52.870;8.798;2022-12-29T02:09:28;9.52;;;6.15;;
24383;SDS011;12504;52.870;8.798;2022-12-29T02:11:54;8.77;;;6.88;;
24383;SDS011;12504;52.870;8.798;2022-12-29T02:14:20;11.48;;;5.93;;
24383;SDS011;12504;52.870;8.798;2022-12-29T02:22:08;6.72;;;5.70;;
24383;SDS011;12504;52.870;8.798;2022-12-29T02:24:58;8.73;;;5.68;;
24383;SDS011;12504;52.870;8.798;2022-12-29T02:27:38;6.50;;;5.90;;
24383;SDS011;12504;52.870;8.798;2022-12-29T02:30:16;8.07;;;5.20;;
24383;SDS011;12504;52.870;8.798;2022-12-29T02:32:51;7.05;;;5.53;;
24383;SDS011;12504;52.870;8.798;2022-12-29T02:40:39;7.65;;;5.88;;
24383;SDS011;12504;52.870;8.798;2022-12-29T02:48:30;6.13;;;4.38;;
24383;SDS011;12504;52.870;8.798;2022-12-29T02:50:59;3.83;;;3.22;;
24383;SDS011;12504;52.870;8.798;2022-12-29T02:53:32;4.10;;;3.40;;
24383;SDS011;12504;52.870;8.798;2022-12-29T02:56:19;4.35;;;3.67;;
24383;SDS011;12504;52.870;8.798;2022-12-29T02:58:46;4.93;;;3.67;;
24383;SDS011;12504;52.870;8.798;2022-12-29T03:01:29;4.03;;;3.00;;
24383;SDS011;12504;52.870;8.798;2022-12-29T03:04:12;3.30;;;2.97;;
24383;SDS011;12504;52.870;8.798;2022-12-29T03:07:04;3.58;;;2.58;;
24383;SDS011;12504;52.870;8.798;2022-12-29T03:12:31;3.38;;;2.05;;
24383;SDS011;12504;52.870;8.798;2022-12-29T03:15:34;5.53;;;3.20;;
24383;SDS011;12504;52.870;8.798;2022-12-29T03:18:38;6.10;;;2.97;;
24383;SDS011;12504;52.870;8.798;2022-12-29T03:24:32;3.72;;;3.33;;
24383;SDS011;12504;52.870;8.798;2022-12-29T03:27:03;6.00;;;2.80;;
24383;SDS011;12504;52.870;8.798;2022-12-29T03:29:39;3.17;;;2.47;;
24383;SDS011;12504;52.870;8.798;2022-12-29T03:32:22;3.00;;;2.65;;
24383;SDS011;12504;52.870;8.798;2022-12-29T03:34:52;3.40;;;2.55;;
24383;SDS011;12504;52.870;8.798;2022-12-29T03:37:23;3.72;;;3.10;;
24383;SDS011;12504;52.870;8.798;2022-12-29T03:39:53;3.60;;;2.80;;
24383;SDS011;12504;52.870;8.798;2022-12-29T03:42:21;4.05;;;3.22;;
24383;SDS011;12504;52.870;8.798;2022-12-29T03:44:52;4.85;;;3.63;;
24383;SDS011;12504;52.870;8.798;2022-12-29T03:47:21;4.00;;;3.60;;
24383;SDS011;12504;52.870;8.798;2022-12-29T03:49:47;5.85;;;3.55;;
24383;SDS011;12504;52.870;8.798;2022-12-29T03:52:14;5.85;;;4.25;;
24383;SDS011;12504;52.870;8.798;2022-12-29T03:54:43;5.82;;;3.72;;
24383;SDS011;12504;52.870;8.798;2022-12-29T03:57:09;5.65;;;3.90;;
24383;SDS011;12504;52.870;8.798;2022-12-29T03:59:49;6.85;;;4.53;;
24383;SDS011;12504;52.870;8.798;2022-12-29T04:02:16;7.25;;;4.05;;
24383;SDS011;12504;52.870;8.798;2022-12-29T04:04:42;5.70;;;4.00;;
24383;SDS011;12504;52.870;8.798;2022-12-29T04:07:08;6.07;;;4.50;;
24383;SDS011;12504;52.870;8.798;2022-12-29T04:09:33;11.75;;;4.85;;
24383;SDS011;12504;52.870;8.798;2022-12-29T04:12:00;5.95;;;4.22;;
24383;SDS011;12504;52.870;8.798;2022-12-29T04:14:26;5.75;;;4.38;;
24383;SDS011;12504;52.870;8.798;2022-12-29T04:16:52;6.47;;;4.60;;
24383;SDS011;12504;52.870;8.798;2022-12-29T04:19:19;7.10;;;4.65;;
24383;SDS011;12504;52.870;8.798;2022-12-29T04:21:46;8.85;;;4.95;;
24383;SDS011;12504;52.870;8.798;2022-12-29T04:24:12;8.38;;;4.65;;
24383;SDS011;12504;52.870;8.798;2022-12-29T04:26:39;7.78;;;4.68;;
24383;SDS011;12504;52.870;8.798;2022-12-29T04:29:19;7.13;;;5.20;;
24383;SDS011;12504;52.870;8.798;2022-12-29T04:31:56;7.72;;;4.95;;
24383;SDS011;12504;52.870;8.798;2022-12-29T04:34:22;6.22;;;4.55;;
24383;SDS011;12504;52.870;8.798;2022-12-29T04:36:48;11.85;;;4.72;;
24383;SDS011;12504;52.870;8.798;2022-12-29T04:39:13;8.52;;;5.10;;
24383;SDS011;12504;52.870;8.798;2022-12-29T04:41:40;6.60;;;4.43;;
24383;SDS011;12504;52.870;8.798;2022-12-29T04:44:09;5.88;;;4.80;;
24383;SDS011;12504;52.870;8.798;2022-12-29T04:46:51;5.30;;;3.78;;
24383;SDS011;12504;52.870;8.798;2022-12-29T04:49:28;6.88;;;4.05;;
24383;SDS011;12504;52.870;8.798;2022-12-29T04:52:05;5.07;;;3.53;;
24383;SDS011;12504;52.870;8.798;2022-12-29T04:54:33;9.75;;;4.88;;
24383;SDS011;12504;52.870;8.798;2022-12-29T04:57:07;5.00;;;4.18;;
24383;SDS011;12504;52.870;8.798;2022-12-29T04:59:36;6.22;;;3.58;;
24383;SDS011;12504;52.870;8.798;2022-12-29T05:02:03;5.95;;;3.63;;
24383;SDS011;12504;52.870;8.798;2022-12-29T05:04:29;6.32;;;3.13;;
24383;SDS011;12504;52.870;8.798;2022-12-29T05:06:56;4.18;;;3.03;;
24383;SDS011;12504;52.870;8.798;2022-12-29T05:09:21;4.63;;;2.85;;
24383;SDS011;12504;52.870;8.798;2022-12-29T05:11:48;3.78;;;2.88;;
24383;SDS011;12504;52.870;8.798;2022-12-29T05:14:14;6.43;;;3.92;;
24383;SDS011;12504;52.870;8.798;2022-12-29T05:16:41;3.95;;;2.70;;
24383;SDS011;12504;52.870;8.798;2022-12-29T05:19:08;2.25;;;2.05;;
24383;SDS011;12504;52.870;8.798;2022-12-29T05:21:33;4.25;;;3.08;;
24383;SDS011;12504;52.870;8.798;2022-12-29T05:23:59;8.02;;;2.30;;
24383;SDS011;12504;52.870;8.798;2022-12-29T05:26:25;5.82;;;1.77;;
24383;SDS011;12504;52.870;8.798;2022-12-29T05:29:18;3.28;;;1.95;;
24383;SDS011;12504;52.870;8.798;2022-12-29T05:31:44;3.08;;;1.95;;
24383;SDS011;12504;52.870;8.798;2022-12-29T05:34:13;2.17;;;1.80;;
24383;SDS011;12504;52.870;8.798;2022-12-29T05:36:39;4.20;;;2.17;;
24383;SDS011;12504;52.870;8.798;2022-12-29T05:39:07;10.48;;;5.35;;
24383;SDS011;12504;52.870;8.798;2022-12-29T05:41:34;3.80;;;1.92;;
24383;SDS011;12504;52.870;8.798;2022-12-29T05:44:02;6.63;;;1.77;;
24383;SDS011;12504;52.870;8.798;2022-12-29T05:46:28;2.35;;;1.90;;
24383;SDS011;12504;52.870;8.798;2022-12-29T05:49:08;3.50;;;3.08;;
24383;SDS011;12504;52.870;8.798;2022-12-29T05:51:51;2.10;;;1.85;;
24383;SDS011;12504;52.870;8.798;2022-12-29T05:54:17;3.22;;;1.90;;
24383;SDS011;12504;52.870;8.798;2022-12-29T05:56:42;2.00;;;1.75;;
24383;SDS011;12504;52.870;8.798;2022-12-29T05:59:09;4.13;;;2.05;;
24383;SDS011;12504;52.870;8.798;2022-12-29T06:01:35;2.85;;;1.83;;
24383;SDS011;12504;52.870;8.798;2022-12-29T06:04:01;4.90;;;2.10;;
24383;SDS011;12504;52.870;8.798;2022-12-29T06:06:27;3.10;;;1.90;;
24383;SDS011;12504;52.870;8.798;2022-12-29T06:08:52;3.15;;;2.22;;
24383;SDS011;12504;52.870;8.798;2022-12-29T06:11:19;3.72;;;2.42;;
24383;SDS011;12504;52.870;8.798;2022-12-29T06:13:51;4.30;;;2.28;;
24383;SDS011;12504;52.870;8.798;2022-12-29T06:16:16;6.03;;;2.60;;
24383;SDS011;12504;52.870;8.798;2022-12-29T06:18:43;4.85;;;3.75;;
24383;SDS011;12504;52.870;8.798;2022-12-29T06:21:09;3.63;;;2.70;;
24383;SDS011;12504;52.870;8.798;2022-12-29T06:23:35;7.20;;;2.90;;
24383;SDS011;12504;52.870;8.798;2022-12-29T06:26:00;3.40;;;2.70;;
24383;SDS011;12504;52.870;8.798;2022-12-29T06:28:26;2.50;;;2.08;;
24383;SDS011;12504;52.870;8.798;2022-12-29T06:30:52;5.15;;;2.50;;
24383;SDS011;12504;52.870;8.798;2022-12-29T06:33:18;3.92;;;2.38;;
24383;SDS011;12504;52.870;8.798;2022-12-29T06:35:43;2.58;;;2.25;;
24383;SDS011;12504;52.870;8.798;2022-12-29T06:38:11;4.45;;;2.50;;
24383;SDS011;12504;52.870;8.798;2022-12-29T06:40:37;4.53;;;2.03;;
24383;SDS011;12504;52.870;8.798;2022-12-29T06:43:40;7.55;;;2.00;;
24383;SDS011;12504;52.870;8.798;2022-12-29T06:46:22;3.50;;;1.80;;
24383;SDS011;12504;52.870;8.798;2022-12-29T06:48:48;2.88;;;1.85;;
24383;SDS011;12504;52.870;8.798;2022-12-29T06:51:13;6.75;;;2.05;;
24383;SDS011;12504;52.870;8.798;2022-12-29T06:53:39;4.75;;;1.77;;
24383;SDS011;12504;52.870;8.798;2022-12-29T06:56:05;4.40;;;1.88;;
24383;SDS011;12504;52.870;8.798;2022-12-29T06:58:30;3.47;;;1.75;;
24383;SDS011;12504;52.870;8.798;2022-12-29T07:00:56;5.68;;;1.23;;
24383;SDS011;12504;52.870;8.798;2022-12-29T07:03:23;2.60;;;1.50;;
24383;SDS011;12504;52.870;8.798;2022-12-29T07:05:48;3.20;;;1.60;;
24383;SDS011;12504;52.870;8.798;2022-12-29T07:08:14;1.77;;;1.42;;
24383;SDS011;12504;52.870;8.798;2022-12-29T07:10:39;2.33;;;1.40;;
24383;SDS011;12504;52.870;8.798;2022-12-29T07:13:06;1.30;;;1.15;;
24383;SDS011;12504;52.870;8.798;2022-12-29T07:15:36;3.78;;;1.00;;
24383;SDS011;12504;52.870;8.798;2022-12-29T07:18:02;5.30;;;1.23;;
24383;SDS011;12504;52.870;8.798;2022-12-29T07:20:29;6.88;;;1.48;;
24383;SDS011;12504;52.870;8.798;2022-12-29T07:22:54;3.13;;;1.48;;
24383;SDS011;12504;52.870;8.798;2022-12-29T07:25:20;5.47;;;1.73;;
24383;SDS011;12504;52.870;8.798;2022-12-29T07:27:46;1.73;;;1.23;;
24383;SDS011;12504;52.870;8.798;2022-12-29T07:30:12;4.40;;;1.00;;
24383;SDS011;12504;52.870;8.798;2022-12-29T07:32:38;1.08;;;0.80;;
24383;SDS011;12504;52.870;8.798;2022-12-29T07:35:03;3.42;;;1.17;;
24383;SDS011;12504;52.870;8.798;2022-12-29T07:37:29;3.20;;;0.90;;
24383;SDS011;12504;52.870;8.798;2022-12-29T07:39:55;1.00;;;0.77;;
24383;SDS011;12504;52.870;8.798;2022-12-29T07:42:20;1.15;;;0.68;;
24383;SDS011;12504;52.870;8.798;2022-12-29T07:44:50;0.90;;;0.60;;
24383;SDS011;12504;52.870;8.798;2022-12-29T07:47:25;2.08;;;0.70;;
24383;SDS011;12504;52.870;8.798;2022-12-29T07:49:51;5.80;;;0.70;;
24383;SDS011;12504;52.870;8.798;2022-12-29T07:52:17;1.00;;;0.70;;
24383;SDS011;12504;52.870;8.798;2022-12-29T07:54:42;5.70;;;1.08;;
24383;SDS011;12504;52.870;8.798;2022-12-29T07:57:08;0.95;;;0.70;;
24383;SDS011;12504;52.870;8.798;2022-12-29T07:59:33;7.03;;;1.00;;
24383;SDS011;12504;52.870;8.798;2022-12-29T08:01:59;1.85;;;0.70;;
24383;SDS011;12504;52.870;8.798;2022-12-29T08:04:25;3.17;;;0.80;;
24383;SDS011;12504;52.870;8.798;2022-12-29T08:06:51;3.05;;;0.98;;
24383;SDS011;12504;52.870;8.798;2022-12-29T08:09:16;1.00;;;0.60;;
24383;SDS011;12504;52.870;8.798;2022-12-29T08:11:42;0.73;;;0.70;;
24383;SDS011;12504;52.870;8.798;2022-12-29T08:14:08;0.60;;;0.60;;
24383;SDS011;12504;52.870;8.798;2022-12-29T08:16:35;1.25;;;0.63;;
24383;SDS011;12504;52.870;8.798;2022-12-29T08:19:01;1.90;;;0.60;;
24383;SDS011;12504;52.870;8.798;2022-12-29T08:21:28;2.47;;;0.77;;
24383;SDS011;12504;52.870;8.798;2022-12-29T08:23:54;3.50;;;1.30;;
24383;SDS011;12504;52.870;8.798;2022-12-29T08:26:20;2.85;;;1.17;;
24383;SDS011;12504;52.870;8.798;2022-12-29T08:28:46;1.38;;;0.80;;
24383;SDS011;12504;52.870;8.798;2022-12-29T08:31:12;3.08;;;1.05;;
24383;SDS011;12504;52.870;8.798;2022-12-29T08:33:38;3.15;;;1.02;;
24383;SDS011;12504;52.870;8.798;2022-12-29T08:36:04;2.63;;;1.45;;
24383;SDS011;12504;52.870;8.798;2022-12-29T08:38:31;3.45;;;1.65;;
24383;SDS011;12504;52.870;8.798;2022-12-29T08:40:58;3.35;;;1.52;;
24383;SDS011;12504;52.870;8.798;2022-12-29T08:43:24;2.10;;;0.95;;
24383;SDS011;12504;52.870;8.798;2022-12-29T08:45:50;2.25;;;1.08;;
24383;SDS011;12504;52.870;8.798;2022-12-29T08:48:16;4.80;;;1.08;;
24383;SDS011;12504;52.870;8.798;2022-12-29T08:50:45;2.25;;;1.20;;
24383;SDS011;12504;52.870;8.798;2022-12-29T08:53:11;3.28;;;1.20;;
24383;SDS011;12504;52.870;8.798;2022-12-29T08:55:37;6.18;;;1.27;;
24383;SDS011;12504;52.870;8.798;2022-12-29T08:58:02;6.35;;;1.58;;
24383;SDS011;12504;52.870;8.798;2022-12-29T09:00:28;6.68;;;1.35;;
24383;SDS011;12504;52.870;8.798;2022-12-29T09:02:55;7.80;;;1.98;;
24383;SDS011;12504;52.870;8.798;2022-12-29T09:05:21;6.00;;;1.65;;
24383;SDS011;12504;52.870;8.798;2022-12-29T09:07:46;6.00;;;1.67;;
24383;SDS011;12504;52.870;8.798;2022-12-29T09:10:12;4.13;;;1.45;;
24383;SDS011;12504;52.870;8.798;2022-12-29T09:12:38;4.45;;;1.35;;
24383;SDS011;12504;52.870;8.798;2022-12-29T09:15:04;2.63;;;1.20;;
24383;SDS011;12504;52.870;8.798;2022-12-29T09:17:30;3.85;;;1.35;;
24383;SDS011;12504;52.870;8.798;2022-12-29T09:20:10;4.65;;;3.03;;
24383;SDS011;12504;52.870;8.798;2022-12-29T09:22:41;2.03;;;1.08;;
24383;SDS011;12504;52.870;8.798;2022-12-29T09:25:07;4.55;;;1.20;;
24383;SDS011;12504;52.870;8.798;2022-12-29T09:27:34;4.85;;;1.45;;
24383;SDS011;12504;52.870;8.798;2022-12-29T09:30:00;10.45;;;1.60;;
24383;SDS011;12504;52.870;8.798;2022-12-29T09:32:28;5.00;;;2.10;;
24383;SDS011;12504;52.870;8.798;2022-12-29T09:34:54;5.60;;;1.15;;
24383;SDS011;12504;52.870;8.798;2022-12-29T09:37:19;2.60;;;0.98;;
24383;SDS011;12504;52.870;8.798;2022-12-29T09:39:46;3.08;;;1.13;;
24383;SDS011;12504;52.870;8.798;2022-12-29T09:42:35;5.78;;;1.42;;
24383;SDS011;12504;52.870;8.798;2022-12-29T09:47:33;4.35;;;1.17;;
24383;SDS011;12504;52.870;8.798;2022-12-29T09:50:04;4.47;;;1.08;;
24383;SDS011;12504;52.870;8.798;2022-12-29T09:52:42;2.15;;;0.90;;
24383;SDS011;12504;52.870;8.798;2022-12-29T09:55:19;3.05;;;1.17;;
24383;SDS011;12504;52.870;8.798;2022-12-29T10:00:20;4.82;;;1.92;;
24383;SDS011;12504;52.870;8.798;2022-12-29T10:08:22;5.28;;;1.20;;
24383;SDS011;12504;52.870;8.798;2022-12-29T10:11:14;4.95;;;1.67;;
24383;SDS011;12504;52.870;8.798;2022-12-29T10:16:48;6.38;;;2.20;;
24383;SDS011;12504;52.870;8.798;2022-12-29T10:24:33;4.28;;;1.58;;
24383;SDS011;12504;52.870;8.798;2022-12-29T10:27:02;4.72;;;1.58;;
24383;SDS011;12504;52.870;8.798;2022-12-29T10:29:35;7.93;;;2.13;;
24383;SDS011;12504;52.870;8.798;2022-12-29T10:34:51;5.45;;;3.55;;
24383;SDS011;12504;52.870;8.798;2022-12-29T10:37:30;4.15;;;1.20;;
24383;SDS011;12504;52.870;8.798;2022-12-29T10:40:51;4.03;;;1.23;;
24383;SDS011;12504;52.870;8.798;2022-12-29T10:43:20;3.47;;;1.55;;
24383;SDS011;12504;52.870;8.798;2022-12-29T10:45:51;5.60;;;2.25;;
24383;SDS011;12504;52.870;8.798;2022-12-29T10:48:20;8.73;;;2.42;;
24383;SDS011;12504;52.870;8.798;2022-12-29T10:51:05;4.95;;;1.38;;
24383;SDS011;12504;52.870;8.798;2022-12-29T10:53:46;13.88;;;2.80;;
24383;SDS011;12504;52.870;8.798;2022-12-29T10:56:29;2.95;;;1.38;;
24383;SDS011;12504;52.870;8.798;2022-12-29T10:59:03;3.30;;;1.63;;
24383;SDS011;12504;52.870;8.798;2022-12-29T11:01:39;2.97;;;1.63;;
24383;SDS011;12504;52.870;8.798;2022-12-29T11:04:31;9.52;;;2.00;;
24383;SDS011;12504;52.870;8.798;2022-12-29T11:07:18;6.13;;;2.38;;
24383;SDS011;12504;52.870;8.798;2022-12-29T11:09:45;5.20;;;2.28;;
24383;SDS011;12504;52.870;8.798;2022-12-29T11:12:19;5.60;;;1.10;;
24383;SDS011;12504;52.870;8.798;2022-12-29T11:14:45;4.68;;;1.80;;
24383;SDS011;12504;52.870;8.798;2022-12-29T11:17:14;4.28;;;1.70;;
24383;SDS011;12504;52.870;8.798;2022-12-29T11:19:42;3.80;;;1.40;;
24383;SDS011;12504;52.870;8.798;2022-12-29T11:22:24;1.85;;;1.10;;
24383;SDS011;12504;52.870;8.798;2022-12-29T11:24:52;7.68;;;1.50;;
24383;SDS011;12504;52.870;8.798;2022-12-29T11:27:23;7.05;;;1.40;;
24383;SDS011;12504;52.870;8.798;2022-12-29T11:29:50;11.95;;;2.67;;
24383;SDS011;12504;52.870;8.798;2022-12-29T11:32:18;4.28;;;1.70;;
24383;SDS011;12504;52.870;8.798;2022-12-29T11:34:48;4.25;;;1.50;;
24383;SDS011;12504;52.870;8.798;2022-12-29T11:37:16;10.75;;;2.47;;
24383;SDS011;12504;52.870;8.798;2022-12-29T11:39:55;4.88;;;1.45;;
24383;SDS011;12504;52.870;8.798;2022-12-29T11:42:34;7.07;;;2.90;;
24383;SDS011;12504;52.870;8.798;2022-12-29T11:45:06;8.23;;;1.80;;
24383;SDS011;12504;52.870;8.798;2022-12-29T11:47:41;8.98;;;1.75;;
24383;SDS011;12504;52.870;8.798;2022-12-29T11:50:16;6.82;;;1.90;;
24383;SDS011;12504;52.870;8.798;2022-12-29T11:52:47;4.32;;;1.33;;
24383;SDS011;12504;52.870;8.798;2022-12-29T11:55:19;4.88;;;1.80;;
24383;SDS011;12504;52.870;8.798;2022-12-29T11:57:47;5.72;;;1.63;;
24383;SDS011;12504;52.870;8.798;2022-12-29T12:00:19;9.93;;;1.35;;
24383;SDS011;12504;52.870;8.798;2022-12-29T12:05:41;3.58;;;1.30;;
24383;SDS011;12504;52.870;8.798;2022-12-29T12:08:28;2.47;;;1.95;;
24383;SDS011;12504;52.870;8.798;2022-12-29T12:13:37;6.20;;;1.52;;
24383;SDS011;12504;52.870;8.798;2022-12-29T12:16:18;11.25;;;2.28;;
24383;SDS011;12504;52.870;8.798;2022-12-29T12:18:54;11.35;;;1.63;;
24383;SDS011;12504;52.870;8.798;2022-12-29T12:21:30;4.07;;;1.30;;
24383;SDS011;12504;52.870;8.798;2022-12-29T12:24:21;5.18;;;1.70;;
24383;SDS011;12504;52.870;8.798;2022-12-29T12:29:28;6.90;;;1.45;;
24383;SDS011;12504;52.870;8.798;2022-12-29T12:32:23;2.88;;;1.63;;
24383;SDS011;12504;52.870;8.798;2022-12-29T12:35:03;4.18;;;1.58;;
24383;SDS011;12504;52.870;8.798;2022-12-29T12:51:15;4.18;;;1.05;;
24383;SDS011;12504;52.870;8.798;2022-12-29T13:00:17;3.00;;;1.52;;
24383;SDS011;12504;52.870;8.798;2022-12-29T13:08:23;5.68;;;1.52;;
24383;SDS011;12504;52.870;8.798;2022-12-29T13:26:33;7.03;;;2.15;;
24383;SDS011;12504;52.870;8.798;2022-12-29T13:31:57;5.90;;;1.70;;
24383;SDS011;12504;52.870;8.798;2022-12-29T13:37:58;5.07;;;1.60;;
24383;SDS011;12504;52.870;8.798;2022-12-29T13:40:52;4.10;;;1.60;;
24383;SDS011;12504;52.870;8.798;2022-12-29T13:43:21;8.02;;;1.75;;
24383;SDS011;12504;52.870;8.798;2022-12-29T13:45:55;3.35;;;1.75;;
24383;SDS011;12504;52.870;8.798;2022-12-29T13:48:39;6.57;;;1.92;;
24383;SDS011;12504;52.870;8.798;2022-12-29T13:51:12;2.50;;;1.52;;
24383;SDS011;12504;52.870;8.798;2022-12-29T13:56:32;7.00;;;1.88;;
24383;SDS011;12504;52.870;8.798;2022-12-29T14:01:42;3.13;;;1.30;;
24383;SDS011;12504;52.870;8.798;2022-12-29T14:04:25;7.30;;;2.25;;
24383;SDS011;12504;52.870;8.798;2022-12-29T14:06:59;3.97;;;1.55;;
24383;SDS011;12504;52.870;8.798;2022-12-29T14:14:52;3.80;;;2.78;;
24383;SDS011;12504;52.870;8.798;2022-12-29T14:17:19;2.85;;;2.50;;
24383;SDS011;12504;52.870;8.798;2022-12-29T14:19:46;11.35;;;2.28;;
24383;SDS011;12504;52.870;8.798;2022-12-29T14:22:25;11.68;;;3.00;;
24383;SDS011;12504;52.870;8.798;2022-12-29T14:24:53;4.72;;;2.38;;
24383;SDS011;12504;52.870;8.798;2022-12-29T14:29:45;7.90;;;3.05;;
24383;SDS011;12504;52.870;8.798;2022-12-29T14:34:51;7.90;;;2.42;;
24383;SDS011;12504;52.870;8.798;2022-12-29T14:37:26;5.85;;;2.80;;
24383;SDS011;12504;52.870;8.798;2022-12-29T14:42:29;3.92;;;1.70;;
24383;SDS011;12504;52.870;8.798;2022-12-29T14:47:37;6.35;;;2.03;;
24383;SDS011;12504;52.870;8.798;2022-12-29T14:50:12;5.22;;;2.67;;
24383;SDS011;12504;52.870;8.798;2022-12-29T14:52:55;3.22;;;2.08;;
24383;SDS011;12504;52.870;8.798;2022-12-29T14:58:28;17.45;;;2.60;;
24383;SDS011;12504;52.870;8.798;2022-12-29T15:01:14;7.25;;;2.10;;
24383;SDS011;12504;52.870;8.798;2022-12-29T15:03:49;7.32;;;3.53;;
24383;SDS011;12504;52.870;8.798;2022-12-29T15:06:17;4.53;;;2.28;;
24383;SDS011;12504;52.870;8.798;2022-12-29T15:08:51;8.55;;;3.13;;
24383;SDS011;12504;52.870;8.798;2022-12-29T15:14:01;8.52;;;3.00;;
24383;SDS011;12504;52.870;8.798;2022-12-29T15:16:31;6.10;;;2.92;;
24383;SDS011;12504;52.870;8.798;2022-12-29T15:19:00;7.28;;;3.20;;
24383;SDS011;12504;52.870;8.798;2022-12-29T15:21:35;10.30;;;3.08;;
24383;SDS011;12504;52.870;8.798;2022-12-29T15:24:02;5.93;;;2.47;;
24383;SDS011;12504;52.870;8.798;2022-12-29T15:26:38;9.55;;;2.85;;
24383;SDS011;12504;52.870;8.798;2022-12-29T15:29:26;10.45;;;4.45;;
24383;SDS011;12504;52.870;8.798;2022-12-29T15:34:47;7.80;;;2.78;;
24383;SDS011;12504;52.870;8.798;2022-12-29T15:37:18;6.60;;;2.75;;
24383;SDS011;12504;52.870;8.798;2022-12-29T15:39:49;11.05;;;2.95;;
24383;SDS011;12504;52.870;8.798;2022-12-29T15:45:13;8.30;;;3.25;;
24383;SDS011;12504;52.870;8.798;2022-12-29T15:47:39;5.25;;;2.10;;
24383;SDS011;12504;52.870;8.798;2022-12-29T15:52:38;7.40;;;2.63;;
24383;SDS011;12504;52.870;8.798;2022-12-29T15:55:04;9.68;;;4.05;;
24383;SDS011;12504;52.870;8.798;2022-12-29T15:57:36;16.35;;;4.80;;
24383;SDS011;12504;52.870;8.798;2022-12-29T16:00:23;7.10;;;2.75;;
24383;SDS011;12504;52.870;8.798;2022-12-29T16:02:50;10.45;;;3.00;;
24383;SDS011;12504;52.870;8.798;2022-12-29T16:05:18;7.40;;;3.05;;
24383;SDS011;12504;52.870;8.798;2022-12-29T16:10:32;13.48;;;4.72;;
24383;SDS011;12504;52.870;8.798;2022-12-29T16:13:03;10.88;;;4.22;;
24383;SDS011;12504;52.870;8.798;2022-12-29T16:15:47;10.15;;;3.85;;
24383;SDS011;12504;52.870;8.798;2022-12-29T16:18:22;10.43;;;3.30;;
24383;SDS011;12504;52.870;8.798;2022-12-29T16:20:52;6.78;;;3.53;;
24383;SDS011;12504;52.870;8.798;2022-12-29T16:23:19;7.65;;;2.95;;
24383;SDS011;12504;52.870;8.798;2022-12-29T16:25:48;6.90;;;3.00;;
24383;SDS011;12504;52.870;8.798;2022-12-29T16:28:21;4.38;;;2.53;;
24383;SDS011;12504;52.870;8.798;2022-12-29T16:31:05;12.82;;;3.90;;
24383;SDS011;12504;52.870;8.798;2022-12-29T16:33:48;7.88;;;3.78;;
24383;SDS011;12504;52.870;8.798;2022-12-29T16:36:28;12.52;;;3.35;;
24383;SDS011;12504;52.870;8.798;2022-12-29T16:41:42;8.13;;;3.38;;
24383;SDS011;12504;52.870;8.798;2022-12-29T16:44:11;8.90;;;4.25;;
24383;SDS011;12504;52.870;8.798;2022-12-29T16:46:40;9.40;;;3.88;;
24383;SDS011;12504;52.870;8.798;2022-12-29T16:49:30;8.85;;;3.53;;
24383;SDS011;12504;52.870;8.798;2022-12-29T16:51:57;8.48;;;3.33;;
24383;SDS011;12504;52.870;8.798;2022-12-29T16:54:33;7.85;;;3.40;;
24383;SDS011;12504;52.870;8.798;2022-12-29T16:57:01;12.07;;;5.93;;
24383;SDS011;12504;52.870;8.798;2022-12-29T17:04:26;13.63;;;3.75;;
24383;SDS011;12504;52.870;8.798;2022-12-29T17:06:53;9.05;;;3.55;;
24383;SDS011;12504;52.870;8.798;2022-12-29T17:09:20;12.25;;;3.55;;
24383;SDS011;12504;52.870;8.798;2022-12-29T17:11:48;11.63;;;3.00;;
24383;SDS011;12504;52.870;8.798;2022-12-29T17:17:16;7.65;;;3.92;;
24383;SDS011;12504;52.870;8.798;2022-12-29T17:19:46;10.55;;;3.63;;
24383;SDS011;12504;52.870;8.798;2022-12-29T17:22:25;5.82;;;3.33;;
24383;SDS011;12504;52.870;8.798;2022-12-29T17:24:52;12.35;;;4.53;;
24383;SDS011;12504;52.870;8.798;2022-12-29T17:30:42;9.88;;;3.83;;
24383;SDS011;12504;52.870;8.798;2022-12-29T17:35:22;8.10;;;3.00;;
24383;SDS011;12504;52.870;8.798;2022-12-29T17:37:48;8.13;;;2.65;;
24383;SDS011;12504;52.870;8.798;2022-12-29T17:40:15;4.32;;;2.53;;
24383;SDS011;12504;52.870;8.798;2022-12-29T17:42:44;11.40;;;3.55;;
24383;SDS011;12504;52.870;8.798;2022-12-29T17:45:19;5.45;;;2.85;;
24383;SDS011;12504;52.870;8.798;2022-12-29T17:47:48;10.13;;;2.63;;
24383;SDS011;12504;52.870;8.798;2022-12-29T17:50:18;6.05;;;2.30;;